Time;durP1;ratioP1;P1;durP2;ratioP2;P2;SDS_P1;SDS_P2;PMS_P1;PMS_P2;Temp;Humidity;BMP_temperature;BMP_pressure;BME280_temperature;BME280_humidity;BME280_pressure;Samples;Min_cycle;Max_cycle;Signal;HPM_P1;HPM_P2
2021/09/27 00:01:35;;;;;;;63.40;38.05;;;15.00;99.90;;;;;;4110218;28;20033;-73
2021/09/27 00:03:37;;;;;;;56.20;38.03;;;15.00;99.90;;;;;;4136003;28;20465;-74
2021/09/27 00:05:38;;;;;;;61.30;39.55;;;15.00;99.90;;;;;;4135993;28;20042;-74
2021/09/27 00:07:40;;;;;;;59.63;38.45;;;15.10;99.90;;;;;;4134816;28;20100;-73
2021/09/27 00:09:41;;;;;;;55.60;36.40;;;15.10;99.90;;;;;;4133782;28;20180;-74
2021/09/27 00:11:42;;;;;;;54.85;38.50;;;15.10;99.90;;;;;;4135600;28;20034;-74
2021/09/27 00:13:47;;;;;;;51.38;36.10;;;15.10;99.90;;;;;;4135380;28;20045;-73
2021/09/27 00:15:52;;;;;;;59.55;40.33;;;15.00;99.90;;;;;;4134019;28;20042;-74
2021/09/27 00:17:54;;;;;;;57.92;37.80;;;15.00;99.90;;;;;;4150739;28;20048;-74
2021/09/27 00:19:54;;;;;;;49.88;36.70;;;14.90;99.90;;;;;;4117372;28;20029;-74
2021/09/27 00:21:55;;;;;;;55.60;37.38;;;14.90;99.90;;;;;;4126402;28;20129;-73
2021/09/27 00:23:57;;;;;;;51.85;36.97;;;14.90;99.90;;;;;;4135017;28;20044;-73
2021/09/27 00:25:59;;;;;;;54.22;35.70;;;15.00;99.90;;;;;;4132641;28;22265;-74
2021/09/27 00:28:00;;;;;;;62.78;37.22;;;15.00;99.90;;;;;;4129248;28;20405;-73
2021/09/27 00:30:01;;;;;;;56.25;35.78;;;15.10;99.90;;;;;;4127636;28;20042;-74
2021/09/27 00:32:02;;;;;;;52.10;35.95;;;15.00;99.90;;;;;;4133646;28;20056;-74
2021/09/27 00:34:03;;;;;;;52.00;34.05;;;15.00;99.90;;;;;;4134212;28;20030;-74
2021/09/27 00:36:04;;;;;;;54.92;34.15;;;15.00;99.90;;;;;;4117385;28;20852;-73
2021/09/27 00:38:07;;;;;;;51.95;34.60;;;15.00;99.90;;;;;;4133923;28;20033;-74
2021/09/27 00:40:11;;;;;;;56.03;35.63;;;15.00;99.90;;;;;;4136099;28;20485;-75
2021/09/27 00:42:12;;;;;;;53.75;34.20;;;15.00;99.90;;;;;;4135097;28;20045;-74
2021/09/27 00:44:13;;;;;;;53.60;34.10;;;15.00;99.90;;;;;;4136018;28;20038;-74
2021/09/27 00:46:20;;;;;;;47.80;31.65;;;15.00;99.90;;;;;;4132218;28;20041;-74
2021/09/27 00:48:21;;;;;;;46.00;32.13;;;15.00;99.90;;;;;;4135410;28;20108;-74
2021/09/27 00:50:29;;;;;;;49.10;33.38;;;15.00;99.90;;;;;;4134132;28;20045;-74
2021/09/27 00:52:30;;;;;;;45.90;31.42;;;15.00;99.90;;;;;;4132972;28;20513;-74
2021/09/27 00:54:35;;;;;;;45.75;30.80;;;15.00;99.90;;;;;;4135383;28;20112;-74
2021/09/27 00:56:45;;;;;;;43.60;30.52;;;14.90;99.90;;;;;;4112298;28;20100;-74
2021/09/27 00:58:46;;;;;;;43.10;30.27;;;14.90;99.90;;;;;;4133559;28;20061;-74
2021/09/27 01:00:48;;;;;;;48.70;32.40;;;15.00;99.90;;;;;;4116520;28;20117;-74
2021/09/27 01:02:50;;;;;;;49.15;30.55;;;15.00;99.90;;;;;;4134537;28;20100;-73
2021/09/27 01:04:51;;;;;;;48.83;32.88;;;15.00;99.90;;;;;;4133354;28;20092;-74
2021/09/27 01:07:16;;;;;;;49.40;31.38;;;15.00;99.90;;;;;;4133271;28;20057;-73
2021/09/27 01:10:00;;;;;;;46.00;32.08;;;15.00;99.90;;;;;;4116644;28;20038;-74
2021/09/27 01:12:16;;;;;;;41.40;29.52;;;14.90;99.90;;;;;;4133978;28;20096;-73
2021/09/27 01:14:30;;;;;;;45.38;29.58;;;14.90;99.90;;;;;;4135037;28;20037;-74
2021/09/27 01:16:43;;;;;;;45.13;30.60;;;14.80;99.90;;;;;;4130556;28;20073;-71
2021/09/27 01:19:26;;;;;;;42.83;29.40;;;14.80;99.90;;;;;;4132930;28;20038;-75
2021/09/27 01:21:39;;;;;;;47.90;30.08;;;14.80;99.90;;;;;;4134733;28;20536;-74
2021/09/27 01:23:44;;;;;;;53.90;31.63;;;14.80;99.90;;;;;;4134135;28;20130;-74
2021/09/27 01:26:49;;;;;;;48.80;31.33;;;14.70;99.90;;;;;;4135370;28;20042;-74
2021/09/27 01:29:17;;;;;;;46.95;29.27;;;14.70;99.90;;;;;;4130242;28;20472;-73
2021/09/27 01:31:58;;;;;;;45.25;29.52;;;14.60;99.90;;;;;;4127191;28;20355;-72
2021/09/27 01:34:04;;;;;;;46.08;31.00;;;14.60;99.90;;;;;;4135301;28;20042;-74
2021/09/27 01:36:29;;;;;;;50.10;31.73;;;14.60;99.90;;;;;;4119908;28;20093;-74
2021/09/27 01:38:58;;;;;;;45.17;30.60;;;14.60;99.90;;;;;;4136222;28;20080;-74
2021/09/27 01:41:37;;;;;;;47.58;31.95;;;14.50;99.90;;;;;;4136603;28;20026;-74
2021/09/27 01:43:57;;;;;;;46.53;32.08;;;14.40;99.90;;;;;;4135727;28;20042;-75
2021/09/27 01:46:15;;;;;;;53.25;33.15;;;14.40;99.90;;;;;;4136683;28;20096;-74
2021/09/27 01:48:25;;;;;;;55.17;32.35;;;14.30;99.90;;;;;;4136872;28;20052;-75
2021/09/27 01:50:35;;;;;;;49.92;31.95;;;14.20;99.90;;;;;;4136190;28;20037;-74
2021/09/27 01:52:50;;;;;;;52.25;32.85;;;14.20;99.90;;;;;;4152887;28;20068;-72
2021/09/27 01:54:56;;;;;;;52.33;32.50;;;14.20;99.90;;;;;;4137940;28;20183;-72
2021/09/27 01:57:22;;;;;;;50.85;33.42;;;14.10;99.90;;;;;;4114278;28;20183;-72
2021/09/27 01:59:56;;;;;;;64.03;33.22;;;14.00;99.90;;;;;;4124981;28;20034;-73
2021/09/27 02:02:13;;;;;;;57.78;34.28;;;14.00;99.90;;;;;;4138264;28;20042;-73
2021/09/27 02:05:06;;;;;;;61.22;34.03;;;14.00;99.90;;;;;;4136168;28;20120;-73
2021/09/27 02:07:07;;;;;;;59.35;34.13;;;14.00;99.90;;;;;;4102793;28;20123;-72
2021/09/27 02:09:20;;;;;;;56.55;33.08;;;13.90;99.90;;;;;;4129333;28;20076;-73
2021/09/27 02:11:34;;;;;;;63.28;33.50;;;13.90;99.90;;;;;;4136217;28;20049;-73
2021/09/27 02:14:00;;;;;;;53.78;34.10;;;13.80;99.90;;;;;;4137085;28;20038;-73
2021/09/27 02:16:26;;;;;;;52.88;34.10;;;13.80;99.90;;;;;;4136221;28;20041;-74
2021/09/27 02:19:02;;;;;;;56.08;34.17;;;13.80;99.90;;;;;;4136680;28;20485;-73
2021/09/27 02:21:12;;;;;;;62.75;34.72;;;13.70;99.90;;;;;;4135250;28;20119;-73
2021/09/27 02:23:23;;;;;;;61.70;35.25;;;13.70;99.90;;;;;;4136329;28;20049;-73
2021/09/27 02:25:33;;;;;;;65.72;35.08;;;13.70;99.90;;;;;;4137466;28;20465;-73
2021/09/27 02:27:34;;;;;;;61.10;35.67;;;13.60;99.90;;;;;;4135954;28;20033;-73
2021/09/27 02:29:37;;;;;;;62.30;37.53;;;13.60;99.90;;;;;;4107279;28;20083;-74
2021/09/27 02:32:01;;;;;;;65.20;37.60;;;13.60;99.90;;;;;;4128435;28;20037;-73
2021/09/27 02:34:28;;;;;;;66.70;37.35;;;13.70;99.90;;;;;;4128583;28;20031;-74
2021/09/27 02:36:39;;;;;;;72.20;39.10;;;13.60;99.90;;;;;;4128468;28;20103;-73
2021/09/27 02:39:21;;;;;;;64.10;38.10;;;13.60;99.90;;;;;;4133530;28;20477;-73
2021/09/27 02:41:45;;;;;;;67.60;35.22;;;13.60;99.90;;;;;;4135355;28;20391;-73
2021/09/27 02:43:46;;;;;;;59.28;35.33;;;13.50;99.90;;;;;;4135911;28;20041;-73
2021/09/27 02:45:47;;;;;;;67.55;34.53;;;13.50;99.90;;;;;;4136449;28;20056;-73
2021/09/27 02:48:19;;;;;;;65.32;36.08;;;13.50;99.90;;;;;;4136924;28;20064;-73
2021/09/27 02:50:29;;;;;;;57.75;33.92;;;13.50;99.90;;;;;;4134643;28;20065;-74
2021/09/27 02:52:29;;;;;;;58.47;33.30;;;13.50;99.90;;;;;;4130937;28;20129;-74
2021/09/27 02:54:39;;;;;;;57.05;33.72;;;13.40;99.90;;;;;;4126674;28;20071;-73
2021/09/27 02:57:15;;;;;;;62.35;35.75;;;13.40;99.90;;;;;;4135034;28;20038;-73
2021/09/27 02:59:41;;;;;;;62.75;33.92;;;13.40;99.90;;;;;;4135366;28;20484;-74
2021/09/27 03:01:49;;;;;;;66.45;34.90;;;13.40;99.90;;;;;;4137652;28;20367;-74
2021/09/27 03:04:12;;;;;;;58.72;33.67;;;13.50;99.90;;;;;;4135907;28;20026;-73
2021/09/27 03:06:39;;;;;;;65.53;35.40;;;13.60;99.90;;;;;;4122073;28;20046;-73
2021/09/27 03:09:00;;;;;;;60.38;35.83;;;13.70;99.90;;;;;;4135383;28;20101;-73
2021/09/27 03:11:22;;;;;;;63.58;33.50;;;13.90;99.90;;;;;;4135714;28;20045;-73
2021/09/27 03:13:41;;;;;;;57.92;33.47;;;13.90;99.90;;;;;;4136289;28;20077;-73
2021/09/27 03:16:41;;;;;;;64.20;34.67;;;14.00;99.90;;;;;;4136133;28;20053;-74
2021/09/27 03:19:25;;;;;;;61.60;33.25;;;14.00;99.90;;;;;;4124836;28;20038;-73
2021/09/27 03:21:51;;;;;;;62.10;34.10;;;14.00;99.90;;;;;;4113421;28;20061;-73
2021/09/27 03:24:16;;;;;;;66.75;36.00;;;14.00;99.90;;;;;;4119742;28;20133;-74
2021/09/27 03:26:52;;;;;;;63.75;33.22;;;14.10;99.90;;;;;;4150580;28;20063;-74
2021/09/27 03:29:09;;;;;;;63.03;35.13;;;14.00;99.90;;;;;;4130998;28;20050;-74
2021/09/27 03:31:34;;;;;;;65.03;34.92;;;14.00;99.90;;;;;;4135307;28;20413;-74
2021/09/27 03:34:00;;;;;;;62.17;35.92;;;14.00;99.90;;;;;;4136436;28;20034;-74
2021/09/27 03:36:49;;;;;;;63.92;33.40;;;14.00;99.90;;;;;;4135567;28;20034;-75
2021/09/27 03:39:19;;;;;;;63.90;32.50;;;14.00;99.90;;;;;;4135008;28;20160;-74
2021/09/27 03:41:47;;;;;;;64.82;35.33;;;14.10;99.90;;;;;;4135024;28;20485;-74
2021/09/27 03:44:23;;;;;;;74.28;36.60;;;14.10;99.90;;;;;;4135509;28;20054;-73
2021/09/27 03:46:52;;;;;;;63.30;35.83;;;14.10;99.90;;;;;;4125581;28;20050;-74
2021/09/27 03:49:32;;;;;;;70.50;36.28;;;14.10;99.90;;;;;;4125542;28;20051;-74
2021/09/27 03:51:53;;;;;;;72.75;37.75;;;14.10;99.90;;;;;;4141977;28;20037;-74
2021/09/27 03:54:01;;;;;;;72.18;36.65;;;14.20;99.90;;;;;;4134244;28;20045;-74
2021/09/27 03:56:30;;;;;;;73.95;37.60;;;14.20;99.90;;;;;;4135482;28;20440;-74
2021/09/27 03:58:49;;;;;;;68.80;36.60;;;14.20;99.90;;;;;;4135712;28;20084;-74
2021/09/27 04:01:09;;;;;;;75.10;37.22;;;14.20;99.90;;;;;;4134580;28;20042;-74
2021/09/27 04:03:15;;;;;;;65.47;36.08;;;14.20;99.90;;;;;;4134592;28;20030;-74
2021/09/27 04:05:26;;;;;;;68.18;36.63;;;14.30;99.90;;;;;;4134795;28;20076;-74
2021/09/27 04:07:43;;;;;;;66.95;37.45;;;14.30;99.90;;;;;;4136432;28;20090;-74
2021/09/27 04:10:05;;;;;;;65.15;35.30;;;14.20;99.90;;;;;;4135499;28;20130;-73
2021/09/27 04:12:12;;;;;;;77.55;35.60;;;14.20;99.90;;;;;;4134825;28;20428;-74
2021/09/27 04:15:06;;;;;;;67.07;35.20;;;14.20;99.90;;;;;;4135329;28;20053;-74
2021/09/27 04:17:29;;;;;;;69.15;35.25;;;14.20;99.90;;;;;;4138143;28;20504;-74
2021/09/27 04:20:02;;;;;;;68.30;36.78;;;14.20;99.90;;;;;;4118784;28;20034;-74
2021/09/27 04:22:32;;;;;;;71.37;37.77;;;14.40;99.90;;;;;;4134329;28;20582;-75
2021/09/27 04:25:03;;;;;;;65.78;34.50;;;14.40;99.90;;;;;;4136193;28;20042;-74
2021/09/27 04:27:56;;;;;;;69.75;36.67;;;14.60;99.90;;;;;;4134997;28;20080;-74
2021/09/27 04:30:22;;;;;;;67.97;36.00;;;14.60;99.90;;;;;;4107649;28;20393;-74
2021/09/27 04:32:38;;;;;;;59.67;35.08;;;14.70;99.90;;;;;;4125363;28;20042;-74
2021/09/27 04:35:09;;;;;;;61.75;36.80;;;14.60;99.90;;;;;;4131527;28;20062;-74
2021/09/27 04:37:11;;;;;;;64.57;35.50;;;14.50;99.90;;;;;;4120881;28;20035;-73
2021/09/27 04:39:15;;;;;;;68.15;37.47;;;14.40;99.90;;;;;;4129269;28;20046;-72
2021/09/27 04:41:54;;;;;;;67.57;37.08;;;14.40;99.90;;;;;;4134573;28;20432;-72
2021/09/27 04:44:28;;;;;;;71.00;34.10;;;14.30;99.90;;;;;;4137185;28;20465;-75
2021/09/27 04:46:45;;;;;;;63.47;34.47;;;14.20;99.90;;;;;;4133710;28;20046;-72
2021/09/27 04:49:07;;;;;;;68.53;35.33;;;14.10;99.90;;;;;;4117356;28;20046;-73
2021/09/27 04:51:31;;;;;;;70.15;34.83;;;14.10;99.90;;;;;;4134129;28;20032;-73
2021/09/27 04:54:17;;;;;;;68.53;36.75;;;14.00;99.90;;;;;;4126061;28;20046;-73
2021/09/27 04:57:03;;;;;;;74.70;36.25;;;13.90;99.90;;;;;;4058353;28;20048;-75
2021/09/27 04:59:40;;;;;;;70.25;34.83;;;13.90;99.90;;;;;;4134066;28;20111;-75
2021/09/27 05:02:14;;;;;;;74.05;37.78;;;13.90;99.90;;;;;;4134445;28;20256;-74
2021/09/27 05:04:49;;;;;;;74.22;37.08;;;13.90;99.90;;;;;;4133492;28;20378;-74
2021/09/27 05:07:24;;;;;;;70.60;37.92;;;13.90;99.90;;;;;;4132750;28;20045;-72
2021/09/27 05:09:31;;;;;;;68.05;36.60;;;13.90;99.90;;;;;;4133871;28;20052;-74
2021/09/27 05:12:22;;;;;;;73.90;36.97;;;13.90;99.90;;;;;;4132284;28;20075;-74
2021/09/27 05:14:54;;;;;;;74.28;37.05;;;13.90;99.90;;;;;;4147329;28;20069;-73
2021/09/27 05:17:24;;;;;;;72.22;35.95;;;13.90;99.90;;;;;;4133419;28;20369;-73
2021/09/27 05:20:04;;;;;;;77.85;37.88;;;13.90;99.90;;;;;;4125261;28;20042;-74
2021/09/27 05:22:39;;;;;;;78.55;37.53;;;13.90;99.90;;;;;;4125311;28;20125;-75
2021/09/27 05:25:16;;;;;;;75.30;35.78;;;13.90;99.90;;;;;;4133823;28;20041;-73
2021/09/27 05:27:35;;;;;;;71.55;35.63;;;13.80;99.90;;;;;;4117361;28;20156;-73
2021/09/27 05:29:53;;;;;;;82.15;39.28;;;13.80;99.90;;;;;;4115424;28;20041;-74
2021/09/27 05:32:17;;;;;;;80.47;38.08;;;13.90;99.90;;;;;;4144720;28;20045;-73
2021/09/27 05:35:13;;;;;;;89.60;41.83;;;14.00;99.90;;;;;;4131044;28;20022;-73
2021/09/27 05:37:35;;;;;;;82.50;41.25;;;14.10;99.90;;;;;;4098459;28;20136;-73
2021/09/27 05:40:01;;;;;;;80.55;40.70;;;14.20;99.90;;;;;;4130518;28;20030;-73
2021/09/27 05:43:06;;;;;;;84.00;44.17;;;14.30;99.90;;;;;;4131589;28;20104;-73
2021/09/27 05:45:36;;;;;;;75.78;39.53;;;14.40;99.90;;;;;;4109265;28;20041;-73
2021/09/27 05:48:18;;;;;;;79.25;38.28;;;14.50;99.90;;;;;;4131706;28;20053;-74
2021/09/27 05:50:28;;;;;;;78.47;39.00;;;14.50;99.90;;;;;;4105273;28;20041;-73
2021/09/27 05:52:54;;;;;;;78.75;39.92;;;14.60;99.90;;;;;;4132223;28;20132;-73
2021/09/27 05:55:04;;;;;;;76.57;38.88;;;14.70;99.90;;;;;;4148727;28;20042;-73
2021/09/27 05:57:38;;;;;;;87.95;40.03;;;14.70;99.90;;;;;;4123481;28;20069;-73
2021/09/27 05:59:53;;;;;;;80.72;38.75;;;14.80;99.90;;;;;;4132158;28;20038;-74
2021/09/27 06:02:07;;;;;;;78.82;38.63;;;14.80;99.90;;;;;;4128562;28;20045;-74
2021/09/27 06:04:34;;;;;;;77.35;39.00;;;14.80;99.90;;;;;;4129802;28;20093;-73
2021/09/27 06:06:45;;;;;;;79.97;38.67;;;14.90;99.90;;;;;;4132090;28;20046;-73
2021/09/27 06:09:18;;;;;;;82.03;39.63;;;14.90;99.90;;;;;;4132112;28;20037;-73
2021/09/27 06:11:36;;;;;;;78.50;38.60;;;15.00;99.90;;;;;;4108096;28;20039;-74
2021/09/27 06:13:44;;;;;;;74.15;38.72;;;15.00;99.90;;;;;;4133900;28;20599;-74
2021/09/27 06:15:54;;;;;;;68.80;37.30;;;15.10;99.90;;;;;;4148440;28;20574;-74
2021/09/27 06:18:36;;;;;;;72.10;37.45;;;15.10;99.90;;;;;;4133889;28;20071;-72
2021/09/27 06:21:17;;;;;;;77.72;37.10;;;15.10;99.90;;;;;;4085893;28;20047;-73
2021/09/27 06:23:37;;;;;;;66.25;37.85;;;15.20;99.90;;;;;;4133205;28;20362;-72
2021/09/27 06:25:51;;;;;;;71.32;36.05;;;15.30;99.90;;;;;;4135149;28;20057;-74
2021/09/27 06:28:07;;;;;;;74.43;37.95;;;15.30;99.90;;;;;;4134251;28;20519;-74
2021/09/27 06:30:29;;;;;;;75.45;38.47;;;15.40;99.90;;;;;;4134949;28;20080;-74
2021/09/27 06:32:38;;;;;;;75.82;36.50;;;15.50;99.90;;;;;;4135982;28;20501;-74
2021/09/27 06:34:48;;;;;;;71.00;38.55;;;15.70;99.90;;;;;;4122387;28;20034;-74
2021/09/27 06:36:50;;;;;;;73.63;36.35;;;15.70;99.90;;;;;;4135729;28;20049;-73
2021/09/27 06:38:55;;;;;;;63.83;35.30;;;15.80;99.90;;;;;;4135357;28;20485;-75
2021/09/27 06:40:57;;;;;;;75.18;37.83;;;15.80;99.90;;;;;;4135484;28;20076;-71
2021/09/27 06:42:58;;;;;;;76.95;39.05;;;15.90;99.90;;;;;;4114536;28;20066;-70
2021/09/27 06:44:59;;;;;;;66.68;36.90;;;15.90;99.90;;;;;;4134514;28;20129;-70
2021/09/27 06:46:59;;;;;;;75.35;37.40;;;15.90;99.90;;;;;;4134636;28;20048;-71
2021/09/27 06:49:00;;;;;;;70.82;36.65;;;16.00;99.90;;;;;;4134702;28;20108;-70
2021/09/27 06:51:02;;;;;;;67.78;36.47;;;16.00;99.90;;;;;;4136603;28;20031;-71
2021/09/27 06:53:03;;;;;;;74.90;38.28;;;16.00;99.90;;;;;;4136178;28;20110;-73
2021/09/27 06:55:07;;;;;;;72.93;37.90;;;16.00;99.90;;;;;;4134780;28;20046;-69
2021/09/27 06:57:08;;;;;;;64.20;34.83;;;16.00;99.90;;;;;;4152480;28;20030;-68
2021/09/27 06:59:11;;;;;;;71.13;35.85;;;16.10;99.90;;;;;;4135664;28;20050;-69
2021/09/27 07:01:12;;;;;;;59.55;34.53;;;16.20;99.90;;;;;;4151190;28;20034;-70
2021/09/27 07:03:13;;;;;;;58.58;35.05;;;16.30;99.90;;;;;;4150624;28;20155;-69
2021/09/27 07:05:13;;;;;;;61.78;34.60;;;16.40;99.90;;;;;;4134962;28;20046;-71
2021/09/27 07:07:15;;;;;;;64.93;34.38;;;16.40;99.90;;;;;;4135316;28;20041;-69
2021/09/27 07:09:16;;;;;;;56.67;33.72;;;16.40;99.90;;;;;;4134617;28;20034;-70
2021/09/27 07:11:17;;;;;;;61.83;33.50;;;16.50;99.90;;;;;;4151643;28;20527;-71
2021/09/27 07:13:19;;;;;;;56.50;34.80;;;16.60;99.90;;;;;;4135581;28;20057;-70
2021/09/27 07:15:20;;;;;;;52.20;32.90;;;16.60;99.90;;;;;;4135077;28;20034;-71
2021/09/27 07:17:21;;;;;;;48.33;31.27;;;16.60;99.90;;;;;;4134771;28;20213;-69
2021/09/27 07:19:21;;;;;;;45.03;32.17;;;16.60;99.90;;;;;;4135916;28;20069;-71
2021/09/27 07:21:22;;;;;;;48.58;31.02;;;16.70;99.90;;;;;;4135180;28;20045;-69
2021/09/27 07:23:23;;;;;;;42.67;30.63;;;16.90;99.90;;;;;;4134384;28;20052;-69
2021/09/27 07:25:29;;;;;;;43.90;30.50;;;17.00;99.90;;;;;;4135189;28;20034;-69
2021/09/27 07:27:30;;;;;;;46.60;30.25;;;17.10;99.90;;;;;;4134948;28;20049;-69
2021/09/27 07:29:31;;;;;;;43.67;29.80;;;17.10;99.90;;;;;;4134797;28;20132;-69
2021/09/27 07:31:33;;;;;;;43.67;31.10;;;17.00;99.90;;;;;;4119808;28;20565;-71
2021/09/27 07:33:34;;;;;;;46.08;30.95;;;16.90;99.90;;;;;;4136161;28;20437;-69
2021/09/27 07:35:36;;;;;;;39.85;28.85;;;16.80;99.90;;;;;;4134336;28;20088;-69
2021/09/27 07:37:40;;;;;;;42.33;29.15;;;16.80;99.90;;;;;;4134450;28;20053;-69
2021/09/27 07:39:41;;;;;;;39.13;28.48;;;16.80;99.90;;;;;;4118259;28;20096;-69
2021/09/27 07:41:41;;;;;;;42.28;30.33;;;16.90;99.90;;;;;;4135789;28;20037;-71
2021/09/27 07:43:42;;;;;;;39.28;28.55;;;17.00;99.90;;;;;;4135134;28;20030;-69
2021/09/27 07:45:44;;;;;;;38.35;28.27;;;17.00;99.90;;;;;;4137406;28;20088;-70
2021/09/27 07:47:45;;;;;;;38.20;28.05;;;17.10;99.90;;;;;;4136395;28;20083;-69
2021/09/27 07:49:46;;;;;;;33.80;27.30;;;17.20;99.90;;;;;;4134041;28;20092;-70
2021/09/27 07:51:47;;;;;;;36.80;26.80;;;17.30;99.90;;;;;;4136251;28;20060;-69
2021/09/27 07:53:48;;;;;;;37.22;30.17;;;17.30;99.90;;;;;;4133298;28;20397;-70
2021/09/27 07:55:49;;;;;;;34.22;26.85;;;17.30;99.90;;;;;;4150313;28;20049;-69
2021/09/27 07:57:50;;;;;;;35.60;26.17;;;17.40;99.90;;;;;;4135161;28;20050;-71
2021/09/27 07:59:53;;;;;;;29.15;24.83;;;17.50;99.90;;;;;;4135265;28;20041;-69
2021/09/27 08:01:53;;;;;;;30.13;25.42;;;17.50;99.90;;;;;;4134400;28;20053;-70
2021/09/27 08:03:54;;;;;;;36.70;26.88;;;17.50;99.90;;;;;;4133633;28;20072;-69
2021/09/27 08:05:55;;;;;;;30.02;24.67;;;17.50;99.90;;;;;;4134038;28;20077;-68
2021/09/27 08:07:57;;;;;;;34.55;25.83;;;17.50;99.90;;;;;;4116727;28;20105;-71
2021/09/27 08:09:58;;;;;;;29.30;24.63;;;17.50;99.90;;;;;;4132598;28;20050;-69
2021/09/27 08:11:59;;;;;;;29.98;26.75;;;17.60;99.90;;;;;;4133639;28;20442;-69
2021/09/27 08:14:00;;;;;;;27.10;24.25;;;17.70;99.90;;;;;;4134837;28;20034;-69
2021/09/27 08:16:02;;;;;;;29.02;23.45;;;17.90;99.90;;;;;;4150238;28;20037;-68
2021/09/27 08:18:07;;;;;;;27.42;23.13;;;18.00;99.90;;;;;;4132592;28;20038;-69
2021/09/27 08:20:11;;;;;;;25.50;22.63;;;18.10;99.90;;;;;;4132940;28;20046;-69
2021/09/27 08:22:12;;;;;;;24.20;19.90;;;18.20;99.90;;;;;;4118422;28;20520;-69
2021/09/27 08:24:13;;;;;;;36.67;21.75;;;18.30;99.90;;;;;;4133892;28;20046;-68
2021/09/27 08:26:15;;;;;;;24.45;21.83;;;18.40;99.90;;;;;;4134314;28;20366;-70
2021/09/27 08:28:19;;;;;;;28.00;20.83;;;18.40;99.90;;;;;;4133072;28;20854;-70
2021/09/27 08:30:28;;;;;;;23.67;20.70;;;18.50;99.90;;;;;;4117469;28;20022;-70
2021/09/27 08:32:28;;;;;;;21.85;19.58;;;18.40;99.90;;;;;;4115668;28;20047;-69
2021/09/27 08:34:29;;;;;;;21.80;19.45;;;18.60;99.90;;;;;;4135396;28;20041;-69
2021/09/27 08:36:30;;;;;;;18.88;16.67;;;18.70;99.90;;;;;;4133556;28;20030;-70
2021/09/27 08:38:37;;;;;;;19.50;17.23;;;18.80;99.90;;;;;;4115769;28;20493;-69
2021/09/27 08:40:58;;;;;;;19.52;17.50;;;19.10;99.90;;;;;;4134365;28;20038;-68
2021/09/27 08:43:25;;;;;;;17.02;15.27;;;19.40;99.90;;;;;;4117408;28;20038;-70
2021/09/27 08:45:28;;;;;;;19.00;16.35;;;19.80;99.90;;;;;;4133780;28;20408;-68
2021/09/27 08:47:39;;;;;;;17.92;16.17;;;20.10;99.90;;;;;;4132768;28;20088;-69
2021/09/27 08:49:58;;;;;;;16.88;15.18;;;20.30;99.90;;;;;;4133512;28;20188;-69
2021/09/27 08:51:59;;;;;;;18.73;14.95;;;20.30;99.90;;;;;;4134276;28;20038;-69
2021/09/27 08:54:02;;;;;;;17.48;14.80;;;20.20;99.90;;;;;;4132779;28;20127;-70
2021/09/27 08:56:29;;;;;;;17.73;15.85;;;20.00;99.90;;;;;;4132011;28;20092;-68
2021/09/27 08:58:48;;;;;;;17.83;15.95;;;19.90;99.90;;;;;;4131585;28;20120;-69
2021/09/27 09:00:54;;;;;;;15.85;14.20;;;19.80;99.90;;;;;;4133380;28;20053;-69
2021/09/27 09:03:21;;;;;;;16.17;14.50;;;19.80;99.90;;;;;;4134681;28;20042;-69
2021/09/27 09:05:47;;;;;;;20.20;15.45;;;19.90;99.90;;;;;;4134535;28;20066;-69
2021/09/27 09:07:56;;;;;;;15.77;14.18;;;19.90;99.90;;;;;;4132429;28;20049;-69
2021/09/27 09:10:06;;;;;;;17.15;14.38;;;20.00;99.90;;;;;;4134611;28;20125;-69
2021/09/27 09:12:33;;;;;;;16.95;14.85;;;20.10;99.90;;;;;;4123112;28;20054;-69
2021/09/27 09:14:50;;;;;;;15.98;13.82;;;20.00;99.90;;;;;;4133557;28;20061;-69
2021/09/27 09:16:52;;;;;;;19.15;14.40;;;19.90;99.90;;;;;;4126352;28;20453;-70
2021/09/27 09:18:59;;;;;;;17.10;15.10;;;;;;;;;;4119154;28;20030;-69
2021/09/27 09:21:10;;;;;;;16.60;14.90;;;20.00;99.90;;;;;;4123543;28;20107;-69
2021/09/27 09:23:26;;;;;;;16.63;14.45;;;20.00;99.90;;;;;;4132358;28;20034;-70
2021/09/27 09:25:34;;;;;;;17.05;13.82;;;20.10;99.90;;;;;;4133681;28;20057;-70
2021/09/27 09:27:34;;;;;;;15.20;12.45;;;20.10;99.90;;;;;;4131674;28;20384;-70
2021/09/27 09:29:39;;;;;;;14.73;13.23;;;20.10;99.90;;;;;;4132918;28;20065;-70
2021/09/27 09:31:48;;;;;;;18.75;14.45;;;20.30;99.90;;;;;;4132502;28;20096;-72
2021/09/27 09:34:04;;;;;;;15.90;14.27;;;20.40;99.90;;;;;;4132400;28;20042;-70
2021/09/27 09:36:07;;;;;;;18.85;12.32;;;20.40;99.90;;;;;;4132438;28;20034;-71
2021/09/27 09:38:11;;;;;;;;;;;20.40;99.90;;;;;;4131972;28;20416;-70
2021/09/27 09:40:20;;;;;;;15.50;12.40;;;20.50;99.90;;;;;;4131810;28;19932;-70
2021/09/27 09:42:21;;;;;;;12.27;10.88;;;20.70;99.90;;;;;;4148351;28;20538;-71
2021/09/27 09:44:44;;;;;;;15.23;12.05;;;20.90;99.90;;;;;;4134818;28;20078;-71
2021/09/27 09:46:45;;;;;;;18.05;11.52;;;21.10;99.90;;;;;;4131845;28;20092;-71
2021/09/27 09:49:02;;;;;;;18.88;12.18;;;21.50;99.90;;;;;;4116395;28;20750;-72
2021/09/27 09:51:41;;;;;;;12.77;11.43;;;21.90;99.90;;;;;;4132740;28;20501;-70
2021/09/27 09:53:41;;;;;;;13.20;10.70;;;21.80;99.90;;;;;;4136532;28;20026;-71
2021/09/27 09:56:09;;;;;;;15.65;10.25;;;21.40;99.90;;;;;;4136727;28;20084;-70
2021/09/27 09:58:30;;;;;;;16.95;10.68;;;21.30;99.90;;;;;;4134714;28;20041;-71
2021/09/27 10:00:54;;;;;;;11.52;10.32;;;21.20;99.90;;;;;;4136145;28;20034;-71
2021/09/27 10:02:55;;;;;;;12.52;10.82;;;21.10;99.90;;;;;;4135716;28;20105;-70
2021/09/27 10:05:09;;;;;;;11.02;9.82;;;20.90;99.90;;;;;;4112462;28;20101;-70
2021/09/27 10:07:25;;;;;;;;;;;20.70;99.90;;;;;;4136373;28;20077;-70
2021/09/27 10:09:56;;;;;;;11.18;10.07;;;20.60;99.90;;;;;;4151417;28;19917;-70
2021/09/27 10:12:05;;;;;;;11.25;10.13;;;20.50;99.90;;;;;;4120336;28;20042;-70
2021/09/27 10:14:30;;;;;;;11.10;9.35;;;20.40;99.90;;;;;;4126713;28;20038;-70
2021/09/27 10:16:55;;;;;;;10.10;9.10;;;20.40;99.90;;;;;;4135649;28;20042;-72
2021/09/27 10:19:31;;;;;;;11.73;9.80;;;20.40;99.90;;;;;;4135495;28;20042;-68
2021/09/27 10:21:33;;;;;;;14.38;10.40;;;20.40;99.90;;;;;;4126181;28;20038;-70
2021/09/27 10:23:46;;;;;;;10.57;9.48;;;20.50;99.90;;;;;;4136664;28;20029;-70
2021/09/27 10:25:48;;;;;;;11.77;9.95;;;20.50;99.90;;;;;;4120386;28;20030;-70
2021/09/27 10:27:50;;;;;;;11.30;9.32;;;20.40;99.90;;;;;;4134246;28;20034;-70
2021/09/27 10:29:53;;;;;;;10.57;9.57;;;20.30;99.90;;;;;;4134817;28;20464;-71
2021/09/27 10:32:12;;;;;;;11.07;9.95;;;20.30;99.90;;;;;;4133574;28;20092;-69
2021/09/27 10:34:18;;;;;;;10.20;9.18;;;20.30;99.90;;;;;;4126668;28;20026;-72
2021/09/27 10:36:28;;;;;;;12.43;8.68;;;20.10;99.90;;;;;;4132789;28;20331;-71
2021/09/27 10:38:40;;;;;;;11.93;9.15;;;20.10;99.90;;;;;;4133746;28;20105;-70
2021/09/27 10:40:47;;;;;;;14.27;8.70;;;20.10;99.90;;;;;;4134278;28;20099;-70
2021/09/27 10:42:51;;;;;;;12.45;10.43;;;20.20;99.90;;;;;;4117541;28;20133;-70
2021/09/27 10:44:54;;;;;;;11.18;8.82;;;20.20;99.90;;;;;;4133956;28;20490;-71
2021/09/27 10:47:03;;;;;;;13.23;8.63;;;20.30;99.90;;;;;;4132414;28;20030;-70
2021/09/27 10:49:13;;;;;;;10.73;8.15;;;20.30;99.90;;;;;;4135325;28;20516;-71
2021/09/27 10:51:15;;;;;;;8.57;7.78;;;20.40;99.90;;;;;;4115941;28;20035;-70
2021/09/27 10:53:55;;;;;;;9.70;8.52;;;20.20;99.90;;;;;;4136762;28;20092;-70
2021/09/27 10:56:10;;;;;;;10.80;7.65;;;20.30;99.90;;;;;;4132655;28;20129;-70
2021/09/27 10:58:37;;;;;;;11.57;8.15;;;20.30;99.90;;;;;;4132666;28;20492;-70
2021/09/27 11:00:50;;;;;;;9.43;7.82;;;20.50;99.90;;;;;;4134448;28;20378;-70
2021/09/27 11:03:06;;;;;;;9.35;7.63;;;20.50;99.90;;;;;;4133943;28;20064;-70
2021/09/27 11:05:21;;;;;;;8.45;7.07;;;20.50;99.90;;;;;;4134544;28;20037;-70
2021/09/27 11:07:53;;;;;;;9.40;8.43;;;20.60;99.90;;;;;;4137497;28;20107;-70
2021/09/27 11:09:55;;;;;;;10.48;8.65;;;20.50;99.90;;;;;;4135333;28;20409;-70
2021/09/27 11:12:03;;;;;;;8.85;7.47;;;20.40;99.90;;;;;;4136316;28;20046;-70
2021/09/27 11:14:40;;;;;;;10.13;8.60;;;20.40;99.90;;;;;;4135763;28;20038;-70
2021/09/27 11:16:41;;;;;;;11.07;8.73;;;20.50;99.90;;;;;;4135654;28;20053;-70
2021/09/27 11:18:55;;;;;;;11.68;8.02;;;20.50;99.90;;;;;;4134731;28;20125;-69
2021/09/27 11:21:22;;;;;;;10.02;8.95;;;20.70;99.90;;;;;;4135005;28;20049;-70
2021/09/27 11:23:38;;;;;;;8.60;7.70;;;20.90;99.90;;;;;;4130310;28;20496;-70
2021/09/27 11:25:39;;;;;;;7.47;6.65;;;21.10;99.90;;;;;;4134318;28;20026;-72